VOE3DA LIRF-LEAS
Flight info
| Callsign | VOE3DA |
|---|---|
| Flight time | 2h 20m |
| Altitude | 19000 |
| Route | ESINO Z924 ABIDU/N0458F350 DCT POZZO DCT EPIKU/N0454F360 DCT GINOX DCT KIFMI DCT ELVOP DCT MUREN/N0450F350 M601 BLV M190 LASKU/N0393F230 M190 AMAKA |
| Aircraft | A320/M-SDE3FGHIRWY/LB1 |
Departure
| Time | 2026-05-07 16:16 |
|---|---|
| Airport | Rome–Fiumicino Leonardo da Vinci International Airport (LIRF) |
Arrival
| Time | 2026-05-07 18:36 |
|---|---|
| Airport | Asturias Airport (LEAS) |
| Time | Latitude | Longitude | Altitude | Speed | Heading |
|---|---|---|---|---|---|
| 2026-05-07 15:44 | 41.79757 | 12.25501 | 15 ft | 0 kts | 115° |
| 2026-05-07 16:07 | 41.79763 | 12.25484 | 42 ft | 3 kts | 110° |
| 2026-05-07 16:08 | 41.79768 | 12.25456 | 17 ft | 3 kts | 88° |
| 2026-05-07 16:08 | 41.79763 | 12.25430 | 15 ft | 3 kts | 43° |
| 2026-05-07 16:08 | 41.79757 | 12.25423 | 15 ft | 0 kts | 25° |
| 2026-05-07 16:10 | 41.79762 | 12.25426 | 15 ft | 2 kts | 25° |
| 2026-05-07 16:11 | 41.79787 | 12.25442 | 15 ft | 6 kts | 25° |
| 2026-05-07 16:11 | 41.79839 | 12.25475 | 15 ft | 9 kts | 25° |
| 2026-05-07 16:11 | 41.79890 | 12.25506 | 15 ft | 8 kts | 25° |
| 2026-05-07 16:11 | 41.79937 | 12.25536 | 16 ft | 8 kts | 25° |
| 2026-05-07 16:12 | 41.79995 | 12.25576 | 16 ft | 11 kts | 39° |
| 2026-05-07 16:12 | 41.79980 | 12.25670 | 16 ft | 11 kts | 116° |
| 2026-05-07 16:12 | 41.79941 | 12.25779 | 15 ft | 14 kts | 115° |
| 2026-05-07 16:12 | 41.79965 | 12.25879 | 15 ft | 15 kts | 27° |
| 2026-05-07 16:13 | 41.80069 | 12.25943 | 15 ft | 17 kts | 25° |
| 2026-05-07 16:13 | 41.80178 | 12.26010 | 17 ft | 18 kts | 25° |
| 2026-05-07 16:13 | 41.80279 | 12.26074 | 15 ft | 13 kts | 25° |
| 2026-05-07 16:13 | 41.80350 | 12.26117 | 17 ft | 10 kts | 25° |
| 2026-05-07 16:14 | 41.80409 | 12.26153 | 15 ft | 9 kts | 25° |
| 2026-05-07 16:14 | 41.80480 | 12.26179 | 15 ft | 12 kts | 358° |
| 2026-05-07 16:14 | 41.80566 | 12.26146 | 15 ft | 14 kts | 343° |
| 2026-05-07 16:14 | 41.80663 | 12.26107 | 15 ft | 15 kts | 343° |
| 2026-05-07 16:15 | 41.80708 | 12.26018 | 18 ft | 14 kts | 251° |
| 2026-05-07 16:15 | 41.80671 | 12.25885 | 19 ft | 19 kts | 250° |
| 2026-05-07 16:15 | 41.80560 | 12.25482 | 16 ft | 80 kts | 250° |
| 2026-05-07 16:15 | 41.80295 | 12.24522 | 16 ft | 137 kts | 250° |
| 2026-05-07 16:16 | 41.79920 | 12.23142 | 162 ft | 167 kts | 250° |
| 2026-05-07 16:16 | 41.79527 | 12.21660 | 718 ft | 170 kts | 251° |
| 2026-05-07 16:16 | 41.79289 | 12.20110 | 1339 ft | 172 kts | 271° |
| 2026-05-07 16:16 | 41.79268 | 12.18473 | 1993 ft | 183 kts | 271° |
| 2026-05-07 16:17 | 41.79259 | 12.16648 | 2249 ft | 204 kts | 269° |
| 2026-05-07 16:17 | 41.78980 | 12.14766 | 2780 ft | 211 kts | 245° |
| 2026-05-07 16:17 | 41.78137 | 12.13147 | 3249 ft | 219 kts | 226° |
| 2026-05-07 16:17 | 41.77027 | 12.11744 | 3860 ft | 220 kts | 220° |
| 2026-05-07 16:18 | 41.75836 | 12.10435 | 4464 ft | 221 kts | 217° |
| 2026-05-07 16:18 | 41.74639 | 12.09144 | 5111 ft | 221 kts | 217° |
| 2026-05-07 16:18 | 41.73446 | 12.07821 | 5717 ft | 222 kts | 219° |
| 2026-05-07 16:18 | 41.72290 | 12.06485 | 6318 ft | 223 kts | 221° |
| 2026-05-07 16:19 | 41.71095 | 12.05146 | 6847 ft | 225 kts | 211° |
| 2026-05-07 16:19 | 41.69642 | 12.04395 | 7348 ft | 229 kts | 189° |
| 2026-05-07 16:19 | 41.67972 | 12.04315 | 7475 ft | 254 kts | 178° |
| 2026-05-07 16:19 | 41.66143 | 12.04361 | 7760 ft | 274 kts | 179° |
| 2026-05-07 16:20 | 41.64214 | 12.04359 | 8480 ft | 279 kts | 181° |
| 2026-05-07 16:20 | 41.62264 | 12.04199 | 9248 ft | 282 kts | 194° |
| 2026-05-07 16:20 | 41.60445 | 12.03182 | 9956 ft | 285 kts | 212° |
| 2026-05-07 16:20 | 41.58771 | 12.01618 | 10281 ft | 305 kts | 219° |
| 2026-05-07 16:21 | 41.57103 | 11.99732 | 10391 ft | 329 kts | 222° |
| 2026-05-07 16:21 | 41.55385 | 11.97641 | 10931 ft | 337 kts | 222° |
| 2026-05-07 16:21 | 41.53614 | 11.95539 | 11608 ft | 341 kts | 221° |
| 2026-05-07 16:21 | 41.51794 | 11.93486 | 12318 ft | 343 kts | 220° |
| 2026-05-07 16:22 | 41.49928 | 11.91465 | 13025 ft | 346 kts | 219° |
| 2026-05-07 16:22 | 41.48051 | 11.89482 | 13712 ft | 349 kts | 219° |
| 2026-05-07 16:22 | 41.46131 | 11.87481 | 14321 ft | 351 kts | 219° |
| 2026-05-07 16:22 | 41.44193 | 11.85470 | 14955 ft | 353 kts | 219° |
| 2026-05-07 16:23 | 41.42244 | 11.83440 | 15583 ft | 355 kts | 219° |
| 2026-05-07 16:23 | 41.40346 | 11.81377 | 16203 ft | 356 kts | 224° |
| 2026-05-07 16:23 | 41.38727 | 11.78885 | 16814 ft | 357 kts | 236° |
| 2026-05-07 16:23 | 41.37526 | 11.75982 | 17435 ft | 358 kts | 247° |
| 2026-05-07 16:24 | 41.36671 | 11.72851 | 18098 ft | 359 kts | 249° |
| 2026-05-07 16:24 | 41.35829 | 11.69715 | 18664 ft | 360 kts | 249° |
| 2026-05-07 16:24 | 41.34975 | 11.66563 | 19204 ft | 362 kts | 250° |
| 2026-05-07 16:24 | 41.34122 | 11.63434 | 19693 ft | 365 kts | 250° |
| 2026-05-07 16:25 | 41.33250 | 11.60242 | 20220 ft | 367 kts | 250° |
| 2026-05-07 16:25 | 41.32374 | 11.57032 | 20738 ft | 369 kts | 250° |
| 2026-05-07 16:25 | 41.31493 | 11.53797 | 21262 ft | 372 kts | 251° |
| 2026-05-07 16:25 | 41.30608 | 11.50554 | 21750 ft | 374 kts | 251° |
| 2026-05-07 16:26 | 41.29718 | 11.47293 | 22246 ft | 376 kts | 251° |
| 2026-05-07 16:26 | 41.28832 | 11.44046 | 22719 ft | 378 kts | 251° |
| 2026-05-07 16:26 | 41.27931 | 11.40751 | 23186 ft | 380 kts | 252° |
| 2026-05-07 16:26 | 41.27331 | 11.38560 | 23490 ft | 381 kts | 252° |
| 2026-05-07 16:27 | 41.26105 | 11.34099 | 24005 ft | 384 kts | 251° |
| 2026-05-07 16:27 | 41.25183 | 11.30754 | 24397 ft | 385 kts | 251° |
| 2026-05-07 16:27 | 41.24271 | 11.27452 | 24786 ft | 386 kts | 251° |
| 2026-05-07 16:27 | 41.23344 | 11.24097 | 25157 ft | 387 kts | 251° |
| 2026-05-07 16:28 | 41.22413 | 11.20733 | 25500 ft | 388 kts | 250° |
| 2026-05-07 16:28 | 41.21475 | 11.17358 | 25825 ft | 390 kts | 250° |
| 2026-05-07 16:28 | 41.20530 | 11.13960 | 26158 ft | 392 kts | 250° |
| 2026-05-07 16:28 | 41.19591 | 11.10593 | 26503 ft | 393 kts | 250° |
| 2026-05-07 16:29 | 41.18641 | 11.07181 | 26847 ft | 394 kts | 250° |
| 2026-05-07 16:29 | 41.17689 | 11.03763 | 27178 ft | 395 kts | 250° |
| 2026-05-07 16:29 | 41.16730 | 11.00325 | 27509 ft | 396 kts | 249° |
| 2026-05-07 16:29 | 41.15768 | 10.96877 | 27821 ft | 398 kts | 249° |
| 2026-05-07 16:30 | 41.14804 | 10.93431 | 28133 ft | 399 kts | 249° |
| 2026-05-07 16:30 | 41.13839 | 10.89973 | 28444 ft | 400 kts | 249° |
| 2026-05-07 16:30 | 41.12885 | 10.86546 | 28738 ft | 401 kts | 249° |
| 2026-05-07 16:30 | 41.11913 | 10.83063 | 29029 ft | 402 kts | 249° |
| 2026-05-07 16:31 | 41.10934 | 10.79578 | 29311 ft | 403 kts | 249° |
| 2026-05-07 16:31 | 41.09947 | 10.76084 | 29558 ft | 404 kts | 248° |
| 2026-05-07 16:31 | 41.08956 | 10.72582 | 29816 ft | 406 kts | 248° |
| 2026-05-07 16:31 | 41.07960 | 10.69073 | 30063 ft | 407 kts | 248° |
| 2026-05-07 16:32 | 41.06974 | 10.65601 | 30260 ft | 408 kts | 248° |
| 2026-05-07 16:32 | 41.05977 | 10.62081 | 30454 ft | 408 kts | 248° |
| 2026-05-07 16:32 | 41.04977 | 10.58550 | 30694 ft | 408 kts | 248° |
| 2026-05-07 16:32 | 41.03979 | 10.55028 | 31020 ft | 405 kts | 248° |
| 2026-05-07 16:33 | 41.02990 | 10.51535 | 31390 ft | 401 kts | 248° |
| 2026-05-07 16:33 | 41.02009 | 10.48086 | 31732 ft | 398 kts | 248° |
| 2026-05-07 16:33 | 41.01030 | 10.44668 | 32058 ft | 396 kts | 248° |
| 2026-05-07 16:33 | 41.00067 | 10.41308 | 32366 ft | 394 kts | 248° |
| 2026-05-07 16:34 | 40.99191 | 10.37873 | 32681 ft | 392 kts | 255° |
| 2026-05-07 16:34 | 40.98761 | 10.34297 | 32980 ft | 393 kts | 264° |
| 2026-05-07 16:34 | 40.98640 | 10.30677 | 33277 ft | 392 kts | 264° |
| 2026-05-07 16:34 | 40.98525 | 10.27129 | 33573 ft | 390 kts | 264° |
| 2026-05-07 16:35 | 40.98403 | 10.23545 | 33879 ft | 388 kts | 264° |
| 2026-05-07 16:35 | 40.98278 | 10.19975 | 34169 ft | 386 kts | 264° |
| 2026-05-07 16:35 | 40.98151 | 10.16435 | 34438 ft | 384 kts | 264° |
| 2026-05-07 16:35 | 40.98023 | 10.12914 | 34715 ft | 381 kts | 263° |
| 2026-05-07 16:36 | 40.97895 | 10.09409 | 34988 ft | 378 kts | 263° |
| 2026-05-07 16:36 | 40.97768 | 10.05988 | 35254 ft | 376 kts | 263° |
| 2026-05-07 16:36 | 40.97642 | 10.02529 | 35513 ft | 373 kts | 263° |
| 2026-05-07 16:36 | 40.97516 | 9.99104 | 35761 ft | 371 kts | 263° |
| 2026-05-07 16:37 | 40.97390 | 9.95695 | 35926 ft | 369 kts | 263° |
| 2026-05-07 16:37 | 40.97138 | 9.88978 | 35967 ft | 366 kts | 263° |
| 2026-05-07 16:38 | 40.96874 | 9.82230 | 35984 ft | 367 kts | 263° |
| 2026-05-07 16:38 | 40.96603 | 9.75405 | 35969 ft | 373 kts | 263° |
| 2026-05-07 16:39 | 40.96336 | 9.68570 | 35977 ft | 374 kts | 263° |
| 2026-05-07 16:39 | 40.96061 | 9.61673 | 35968 ft | 374 kts | 263° |
| 2026-05-07 16:40 | 40.95825 | 9.55948 | 35976 ft | 374 kts | 263° |
| 2026-05-07 16:40 | 40.95541 | 9.49057 | 35956 ft | 374 kts | 262° |
| 2026-05-07 16:41 | 40.95259 | 9.42235 | 35986 ft | 373 kts | 262° |
| 2026-05-07 16:41 | 40.94966 | 9.35372 | 35949 ft | 373 kts | 262° |
| 2026-05-07 16:42 | 40.94666 | 9.28545 | 35945 ft | 374 kts | 262° |
| 2026-05-07 16:42 | 40.94286 | 9.21672 | 35938 ft | 373 kts | 261° |
| 2026-05-07 16:43 | 40.93780 | 9.14866 | 35940 ft | 373 kts | 260° |
| 2026-05-07 16:43 | 40.93248 | 9.08016 | 35955 ft | 374 kts | 260° |
| 2026-05-07 16:44 | 40.92729 | 9.01157 | 35934 ft | 375 kts | 260° |
| 2026-05-07 16:44 | 40.92218 | 8.94263 | 35928 ft | 377 kts | 260° |
| 2026-05-07 16:45 | 40.91711 | 8.87401 | 35922 ft | 377 kts | 260° |
| 2026-05-07 16:45 | 40.91190 | 8.80490 | 35921 ft | 378 kts | 260° |
| 2026-05-07 16:46 | 40.90665 | 8.73571 | 35917 ft | 378 kts | 260° |
| 2026-05-07 16:46 | 40.90142 | 8.66683 | 35920 ft | 379 kts | 260° |
| 2026-05-07 16:47 | 40.89605 | 8.59730 | 35916 ft | 380 kts | 260° |
| 2026-05-07 16:47 | 40.89063 | 8.52761 | 35916 ft | 381 kts | 260° |
| 2026-05-07 16:48 | 40.88517 | 8.45773 | 35923 ft | 382 kts | 260° |
| 2026-05-07 16:48 | 40.87967 | 8.38827 | 35925 ft | 382 kts | 260° |
| 2026-05-07 16:49 | 40.87408 | 8.31829 | 35932 ft | 383 kts | 259° |
| 2026-05-07 16:49 | 40.86846 | 8.24852 | 35926 ft | 384 kts | 259° |
| 2026-05-07 16:50 | 40.86276 | 8.17819 | 35922 ft | 385 kts | 259° |
| 2026-05-07 16:50 | 40.85768 | 8.10758 | 35919 ft | 388 kts | 265° |
| 2026-05-07 16:51 | 40.86066 | 8.03570 | 35922 ft | 391 kts | 268° |
| 2026-05-07 16:51 | 40.86429 | 7.96425 | 35943 ft | 393 kts | 269° |
| 2026-05-07 16:52 | 40.86939 | 7.89207 | 35932 ft | 395 kts | 270° |
| 2026-05-07 16:52 | 40.87479 | 7.82014 | 35931 ft | 396 kts | 269° |
| 2026-05-07 16:53 | 40.87984 | 7.74761 | 35925 ft | 396 kts | 269° |
| 2026-05-07 16:53 | 40.88460 | 7.67540 | 35927 ft | 396 kts | 269° |
| 2026-05-07 16:54 | 40.88942 | 7.60257 | 35932 ft | 397 kts | 269° |
| 2026-05-07 16:54 | 40.89429 | 7.52967 | 35963 ft | 397 kts | 269° |
| 2026-05-07 16:55 | 40.89906 | 7.45739 | 35955 ft | 397 kts | 269° |
| 2026-05-07 16:55 | 40.90378 | 7.38452 | 35949 ft | 397 kts | 269° |
| 2026-05-07 16:56 | 40.90845 | 7.31174 | 35949 ft | 397 kts | 269° |
| 2026-05-07 16:56 | 40.91542 | 7.20294 | 35947 ft | 397 kts | 269° |
| 2026-05-07 16:57 | 40.91995 | 7.13011 | 35952 ft | 397 kts | 269° |
| 2026-05-07 16:57 | 40.92444 | 7.05769 | 35951 ft | 397 kts | 269° |
| 2026-05-07 16:58 | 40.92891 | 6.98486 | 35954 ft | 396 kts | 269° |
| 2026-05-07 16:58 | 40.93329 | 6.91210 | 35951 ft | 396 kts | 269° |
| 2026-05-07 16:59 | 40.93766 | 6.83971 | 35971 ft | 396 kts | 268° |
| 2026-05-07 16:59 | 40.94200 | 6.76689 | 35964 ft | 396 kts | 268° |
| 2026-05-07 17:00 | 40.94628 | 6.69449 | 35958 ft | 396 kts | 268° |
| 2026-05-07 17:00 | 40.95048 | 6.62168 | 35955 ft | 396 kts | 268° |
| 2026-05-07 17:01 | 40.95463 | 6.54925 | 35952 ft | 396 kts | 268° |
| 2026-05-07 17:01 | 40.95877 | 6.47650 | 35948 ft | 396 kts | 268° |
| 2026-05-07 17:02 | 40.96287 | 6.40363 | 35950 ft | 397 kts | 268° |
| 2026-05-07 17:02 | 40.96695 | 6.33068 | 35942 ft | 397 kts | 268° |
| 2026-05-07 17:03 | 40.97095 | 6.25810 | 35938 ft | 397 kts | 268° |
| 2026-05-07 17:03 | 40.97490 | 6.18499 | 35939 ft | 398 kts | 268° |
| 2026-05-07 17:04 | 40.97889 | 6.11190 | 35939 ft | 398 kts | 267° |
| 2026-05-07 17:04 | 40.98278 | 6.03918 | 35949 ft | 398 kts | 267° |
| 2026-05-07 17:05 | 40.98657 | 5.96593 | 35942 ft | 399 kts | 267° |
| 2026-05-07 17:05 | 40.99028 | 5.89240 | 35940 ft | 400 kts | 267° |
| 2026-05-07 17:06 | 40.99404 | 5.81880 | 35937 ft | 400 kts | 267° |
| 2026-05-07 17:06 | 40.99783 | 5.74566 | 35938 ft | 401 kts | 267° |
| 2026-05-07 17:07 | 41.00157 | 5.67178 | 35950 ft | 402 kts | 267° |
| 2026-05-07 17:07 | 41.00520 | 5.59819 | 35938 ft | 403 kts | 267° |
| 2026-05-07 17:08 | 41.00880 | 5.52368 | 35935 ft | 404 kts | 267° |
| 2026-05-07 17:08 | 41.01235 | 5.44929 | 35937 ft | 405 kts | 267° |
| 2026-05-07 17:09 | 41.01586 | 5.37514 | 35939 ft | 405 kts | 267° |
| 2026-05-07 17:09 | 41.01814 | 5.32940 | 35960 ft | 404 kts | 267° |
| 2026-05-07 17:10 | 41.02207 | 5.25547 | 35949 ft | 406 kts | 268° |
| 2026-05-07 17:10 | 41.02610 | 5.18053 | 35945 ft | 407 kts | 267° |
| 2026-05-07 17:11 | 41.02993 | 5.10602 | 35941 ft | 407 kts | 267° |
| 2026-05-07 17:11 | 41.03364 | 5.03106 | 35943 ft | 407 kts | 267° |
| 2026-05-07 17:12 | 41.03726 | 4.95606 | 35950 ft | 408 kts | 267° |
| 2026-05-07 17:12 | 41.04101 | 4.88091 | 35966 ft | 408 kts | 267° |
| 2026-05-07 17:13 | 41.04475 | 4.80573 | 35963 ft | 409 kts | 267° |
| 2026-05-07 17:13 | 41.04954 | 4.73103 | 35960 ft | 411 kts | 270° |
| 2026-05-07 17:14 | 41.05762 | 4.65581 | 35957 ft | 413 kts | 272° |
| 2026-05-07 17:14 | 41.06663 | 4.58064 | 35959 ft | 413 kts | 272° |
| 2026-05-07 17:15 | 41.07518 | 4.50532 | 35974 ft | 413 kts | 271° |
| 2026-05-07 17:15 | 41.08321 | 4.42999 | 35964 ft | 412 kts | 271° |
| 2026-05-07 17:16 | 41.09113 | 4.35458 | 35962 ft | 413 kts | 271° |
| 2026-05-07 17:16 | 41.09915 | 4.27917 | 35958 ft | 413 kts | 271° |
| 2026-05-07 17:17 | 41.10708 | 4.20394 | 35960 ft | 412 kts | 271° |
| 2026-05-07 17:17 | 41.11491 | 4.12891 | 35976 ft | 412 kts | 271° |
| 2026-05-07 17:18 | 41.12270 | 4.05356 | 35964 ft | 412 kts | 271° |
| 2026-05-07 17:18 | 41.13041 | 3.97827 | 35957 ft | 412 kts | 271° |
| 2026-05-07 17:19 | 41.13814 | 3.90285 | 35953 ft | 412 kts | 271° |
| 2026-05-07 17:19 | 41.14587 | 3.82752 | 35951 ft | 412 kts | 271° |
| 2026-05-07 17:20 | 41.15350 | 3.75202 | 35979 ft | 412 kts | 271° |
| 2026-05-07 17:20 | 41.16116 | 3.67658 | 35976 ft | 412 kts | 271° |
| 2026-05-07 17:21 | 41.16880 | 3.60126 | 35975 ft | 412 kts | 271° |
| 2026-05-07 17:21 | 41.17626 | 3.52568 | 35975 ft | 412 kts | 271° |
| 2026-05-07 17:22 | 41.18364 | 3.45018 | 35977 ft | 412 kts | 271° |
| 2026-05-07 17:22 | 41.19104 | 3.37470 | 35971 ft | 412 kts | 271° |
| 2026-05-07 17:23 | 41.19834 | 3.29925 | 35969 ft | 412 kts | 271° |
| 2026-05-07 17:23 | 41.20560 | 3.22370 | 35969 ft | 412 kts | 271° |
| 2026-05-07 17:24 | 41.21278 | 3.14827 | 35972 ft | 412 kts | 271° |
| 2026-05-07 17:24 | 41.21874 | 3.08546 | 35974 ft | 412 kts | 271° |
| 2026-05-07 17:25 | 41.22706 | 2.99757 | 35982 ft | 413 kts | 271° |
| 2026-05-07 17:25 | 41.23299 | 2.93421 | 35979 ft | 413 kts | 271° |
| 2026-05-07 17:26 | 41.24004 | 2.85871 | 35979 ft | 413 kts | 271° |
| 2026-05-07 17:26 | 41.24709 | 2.78275 | 35977 ft | 413 kts | 271° |
| 2026-05-07 17:27 | 41.25404 | 2.70748 | 35975 ft | 412 kts | 271° |
| 2026-05-07 17:27 | 41.26089 | 2.63144 | 35996 ft | 412 kts | 270° |
| 2026-05-07 17:28 | 41.26769 | 2.55587 | 35985 ft | 412 kts | 271° |
| 2026-05-07 17:28 | 41.27447 | 2.48044 | 35981 ft | 413 kts | 270° |
| 2026-05-07 17:29 | 41.28123 | 2.40465 | 35980 ft | 413 kts | 270° |
| 2026-05-07 17:29 | 41.28793 | 2.32905 | 35979 ft | 413 kts | 270° |
| 2026-05-07 17:30 | 41.29456 | 2.25346 | 35988 ft | 413 kts | 270° |
| 2026-05-07 17:30 | 41.30117 | 2.17743 | 35975 ft | 413 kts | 270° |
| 2026-05-07 17:31 | 41.31180 | 2.10202 | 35972 ft | 423 kts | 283° |
| 2026-05-07 17:31 | 41.33788 | 2.03059 | 35983 ft | 431 kts | 291° |
| 2026-05-07 17:32 | 41.36609 | 1.96015 | 35985 ft | 431 kts | 291° |
| 2026-05-07 17:32 | 41.39419 | 1.88960 | 35994 ft | 431 kts | 291° |
| 2026-05-07 17:33 | 41.42211 | 1.81896 | 35979 ft | 431 kts | 291° |
| 2026-05-07 17:33 | 41.45004 | 1.74828 | 35976 ft | 431 kts | 291° |
| 2026-05-07 17:34 | 41.47790 | 1.67752 | 35969 ft | 431 kts | 290° |
| 2026-05-07 17:34 | 41.50571 | 1.60673 | 35968 ft | 431 kts | 290° |
| 2026-05-07 17:35 | 41.53353 | 1.53591 | 35965 ft | 431 kts | 290° |
| 2026-05-07 17:35 | 41.56121 | 1.46537 | 35968 ft | 431 kts | 291° |
| 2026-05-07 17:36 | 41.58899 | 1.39416 | 35962 ft | 432 kts | 291° |
| 2026-05-07 17:36 | 41.61656 | 1.32320 | 35950 ft | 433 kts | 291° |
| 2026-05-07 17:37 | 41.64431 | 1.25175 | 35950 ft | 433 kts | 291° |
| 2026-05-07 17:37 | 41.67204 | 1.18017 | 35945 ft | 433 kts | 291° |
| 2026-05-07 17:38 | 41.69971 | 1.10849 | 35965 ft | 433 kts | 292° |
| 2026-05-07 17:38 | 41.72734 | 1.03706 | 35959 ft | 433 kts | 292° |
| 2026-05-07 17:39 | 41.75503 | 0.96529 | 35954 ft | 434 kts | 292° |
| 2026-05-07 17:39 | 41.78263 | 0.89350 | 35966 ft | 433 kts | 292° |
| 2026-05-07 17:40 | 41.80995 | 0.82207 | 35966 ft | 433 kts | 292° |
| 2026-05-07 17:40 | 41.83735 | 0.75034 | 35980 ft | 432 kts | 293° |
| 2026-05-07 17:41 | 41.86481 | 0.67838 | 35972 ft | 432 kts | 293° |
| 2026-05-07 17:41 | 41.89212 | 0.60664 | 35962 ft | 432 kts | 293° |
| 2026-05-07 17:42 | 41.91942 | 0.53475 | 35955 ft | 432 kts | 293° |
| 2026-05-07 17:42 | 41.94657 | 0.46285 | 35953 ft | 432 kts | 293° |
| 2026-05-07 17:43 | 41.97368 | 0.39085 | 35955 ft | 432 kts | 292° |
| 2026-05-07 17:43 | 42.00074 | 0.31879 | 35965 ft | 432 kts | 293° |
| 2026-05-07 17:44 | 42.02789 | 0.24669 | 35950 ft | 433 kts | 293° |
| 2026-05-07 17:44 | 42.05502 | 0.17429 | 35951 ft | 433 kts | 293° |
| 2026-05-07 17:45 | 42.08194 | 0.10229 | 35947 ft | 434 kts | 293° |
| 2026-05-07 17:45 | 42.10898 | 0.02969 | 35951 ft | 434 kts | 293° |
| 2026-05-07 17:46 | 42.13596 | -0.04306 | 35984 ft | 434 kts | 293° |
| 2026-05-07 17:46 | 42.16290 | -0.11581 | 35985 ft | 434 kts | 293° |
| 2026-05-07 17:47 | 42.18982 | -0.18867 | 35973 ft | 434 kts | 293° |
| 2026-05-07 17:47 | 42.21666 | -0.26146 | 35981 ft | 434 kts | 293° |
| 2026-05-07 17:48 | 42.24347 | -0.33447 | 35976 ft | 434 kts | 292° |
| 2026-05-07 17:48 | 42.26415 | -0.39090 | 35944 ft | 429 kts | 292° |
| 2026-05-07 17:49 | 42.27721 | -0.42650 | 35932 ft | 417 kts | 292° |
| 2026-05-07 17:49 | 42.29020 | -0.46187 | 35962 ft | 422 kts | 292° |
| 2026-05-07 17:49 | 42.31653 | -0.53396 | 35963 ft | 431 kts | 292° |
| 2026-05-07 17:50 | 42.34304 | -0.60698 | 35963 ft | 433 kts | 292° |
| 2026-05-07 17:50 | 42.36969 | -0.68019 | 35966 ft | 433 kts | 293° |
| 2026-05-07 17:51 | 42.39606 | -0.75287 | 35966 ft | 433 kts | 292° |
| 2026-05-07 17:51 | 42.42248 | -0.82624 | 35968 ft | 434 kts | 292° |
| 2026-05-07 17:52 | 42.44895 | -0.89967 | 35964 ft | 434 kts | 292° |
| 2026-05-07 17:52 | 42.47538 | -0.97310 | 35955 ft | 434 kts | 292° |
| 2026-05-07 17:53 | 42.50183 | -1.04672 | 35952 ft | 434 kts | 292° |
| 2026-05-07 17:53 | 42.52054 | -1.09901 | 35945 ft | 434 kts | 292° |
| 2026-05-07 17:54 | 42.54682 | -1.17252 | 35944 ft | 433 kts | 292° |
| 2026-05-07 17:54 | 42.57302 | -1.24606 | 35935 ft | 433 kts | 292° |
| 2026-05-07 17:55 | 42.59916 | -1.31982 | 35931 ft | 433 kts | 292° |
| 2026-05-07 17:55 | 42.62520 | -1.39350 | 35927 ft | 433 kts | 292° |
| 2026-05-07 17:56 | 42.65136 | -1.46731 | 35916 ft | 434 kts | 292° |
| 2026-05-07 17:56 | 42.67741 | -1.54110 | 35919 ft | 433 kts | 292° |
| 2026-05-07 17:57 | 42.69896 | -1.60248 | 35926 ft | 433 kts | 292° |
| 2026-05-07 17:57 | 42.72891 | -1.68830 | 35927 ft | 432 kts | 293° |
| 2026-05-07 17:58 | 42.76028 | -1.75823 | 35926 ft | 434 kts | 300° |
| 2026-05-07 17:58 | 42.79296 | -1.82738 | 35928 ft | 434 kts | 300° |
| 2026-05-07 17:59 | 42.82536 | -1.89656 | 35941 ft | 434 kts | 299° |
| 2026-05-07 17:59 | 42.85771 | -1.96585 | 35952 ft | 433 kts | 299° |
| 2026-05-07 18:00 | 42.89001 | -2.03495 | 35953 ft | 432 kts | 299° |
| 2026-05-07 18:00 | 42.92224 | -2.10401 | 35955 ft | 431 kts | 299° |
| 2026-05-07 18:01 | 42.95443 | -2.17315 | 35954 ft | 431 kts | 299° |
| 2026-05-07 18:01 | 42.98638 | -2.24190 | 35951 ft | 431 kts | 299° |
| 2026-05-07 18:02 | 43.03485 | -2.34542 | 35945 ft | 431 kts | 300° |
| 2026-05-07 18:03 | 43.06723 | -2.41425 | 35939 ft | 430 kts | 300° |
| 2026-05-07 18:03 | 43.09952 | -2.48333 | 35936 ft | 430 kts | 300° |
| 2026-05-07 18:04 | 43.13167 | -2.55234 | 35936 ft | 430 kts | 300° |
| 2026-05-07 18:04 | 43.16382 | -2.62139 | 35930 ft | 430 kts | 299° |
| 2026-05-07 18:05 | 43.19579 | -2.69026 | 35934 ft | 430 kts | 300° |
| 2026-05-07 18:05 | 43.22783 | -2.75939 | 35934 ft | 429 kts | 300° |
| 2026-05-07 18:06 | 43.25974 | -2.82856 | 35912 ft | 429 kts | 300° |
| 2026-05-07 18:06 | 43.29140 | -2.89791 | 35909 ft | 428 kts | 296° |
| 2026-05-07 18:07 | 43.31161 | -2.97379 | 35911 ft | 422 kts | 279° |
| 2026-05-07 18:07 | 43.32342 | -3.05297 | 35911 ft | 423 kts | 280° |
| 2026-05-07 18:08 | 43.33528 | -3.13203 | 35914 ft | 423 kts | 281° |
| 2026-05-07 18:08 | 43.34713 | -3.21119 | 35914 ft | 423 kts | 281° |
| 2026-05-07 18:09 | 43.35687 | -3.27698 | 35916 ft | 423 kts | 281° |
| 2026-05-07 18:09 | 43.36860 | -3.35592 | 35931 ft | 423 kts | 281° |
| 2026-05-07 18:10 | 43.38057 | -3.43505 | 35923 ft | 423 kts | 281° |
| 2026-05-07 18:10 | 43.39254 | -3.51413 | 35920 ft | 422 kts | 281° |
| 2026-05-07 18:11 | 43.40432 | -3.59322 | 35927 ft | 421 kts | 281° |
| 2026-05-07 18:11 | 43.41603 | -3.67207 | 35909 ft | 421 kts | 281° |
| 2026-05-07 18:12 | 43.42758 | -3.75047 | 35913 ft | 421 kts | 281° |
| 2026-05-07 18:12 | 43.43914 | -3.82941 | 35910 ft | 420 kts | 281° |
| 2026-05-07 18:13 | 43.45008 | -3.90825 | 35910 ft | 419 kts | 276° |
| 2026-05-07 18:13 | 43.45517 | -3.98803 | 35912 ft | 418 kts | 275° |
| 2026-05-07 18:14 | 43.46018 | -4.06777 | 35911 ft | 418 kts | 275° |
| 2026-05-07 18:14 | 43.46508 | -4.14740 | 35914 ft | 417 kts | 275° |
| 2026-05-07 18:15 | 43.46998 | -4.22696 | 35904 ft | 417 kts | 275° |
| 2026-05-07 18:15 | 43.47474 | -4.30654 | 35903 ft | 417 kts | 275° |
| 2026-05-07 18:16 | 43.47919 | -4.38616 | 35902 ft | 417 kts | 274° |
| 2026-05-07 18:16 | 43.48110 | -4.42592 | 35757 ft | 417 kts | 274° |
| 2026-05-07 18:16 | 43.48292 | -4.46620 | 34695 ft | 424 kts | 275° |
| 2026-05-07 18:16 | 43.48473 | -4.50679 | 33314 ft | 427 kts | 275° |
| 2026-05-07 18:17 | 43.48668 | -4.54775 | 32257 ft | 428 kts | 275° |
| 2026-05-07 18:17 | 43.48881 | -4.58837 | 31668 ft | 421 kts | 276° |
| 2026-05-07 18:17 | 43.49102 | -4.62837 | 31072 ft | 416 kts | 276° |
| 2026-05-07 18:17 | 43.49322 | -4.66783 | 30470 ft | 412 kts | 276° |
| 2026-05-07 18:18 | 43.49539 | -4.70703 | 29862 ft | 408 kts | 276° |
| 2026-05-07 18:18 | 43.49751 | -4.74577 | 29227 ft | 403 kts | 275° |
| 2026-05-07 18:18 | 43.49957 | -4.78403 | 28659 ft | 398 kts | 275° |
| 2026-05-07 18:18 | 43.50155 | -4.82181 | 28099 ft | 393 kts | 275° |
| 2026-05-07 18:19 | 43.50348 | -4.85917 | 27543 ft | 389 kts | 275° |
| 2026-05-07 18:19 | 43.50540 | -4.89613 | 26998 ft | 385 kts | 275° |
| 2026-05-07 18:19 | 43.50742 | -4.93280 | 26464 ft | 382 kts | 275° |
| 2026-05-07 18:19 | 43.50950 | -4.96910 | 25934 ft | 379 kts | 275° |
| 2026-05-07 18:20 | 43.51157 | -5.00516 | 25433 ft | 376 kts | 275° |
| 2026-05-07 18:20 | 43.51359 | -5.04089 | 24939 ft | 373 kts | 275° |
| 2026-05-07 18:20 | 43.51559 | -5.07643 | 24456 ft | 371 kts | 274° |
| 2026-05-07 18:20 | 43.51755 | -5.11130 | 23987 ft | 369 kts | 274° |
| 2026-05-07 18:21 | 43.51952 | -5.14688 | 23506 ft | 367 kts | 274° |
| 2026-05-07 18:21 | 43.52142 | -5.18181 | 22999 ft | 364 kts | 274° |
| 2026-05-07 18:21 | 43.52329 | -5.21637 | 22552 ft | 359 kts | 274° |
| 2026-05-07 18:21 | 43.52514 | -5.25051 | 22111 ft | 355 kts | 274° |
| 2026-05-07 18:22 | 43.52694 | -5.28428 | 21670 ft | 352 kts | 274° |
| 2026-05-07 18:22 | 43.52827 | -5.30647 | 21376 ft | 350 kts | 276° |
| 2026-05-07 18:22 | 43.53576 | -5.34945 | 20787 ft | 348 kts | 287° |
| 2026-05-07 18:22 | 43.54349 | -5.38091 | 20341 ft | 345 kts | 287° |
| 2026-05-07 18:23 | 43.55116 | -5.41221 | 19883 ft | 344 kts | 287° |
| 2026-05-07 18:23 | 43.55875 | -5.44332 | 19436 ft | 342 kts | 287° |
| 2026-05-07 18:23 | 43.56634 | -5.47465 | 18992 ft | 348 kts | 286° |
| 2026-05-07 18:23 | 43.57405 | -5.50666 | 18561 ft | 353 kts | 286° |
| 2026-05-07 18:24 | 43.58177 | -5.53882 | 18129 ft | 353 kts | 286° |
| 2026-05-07 18:24 | 43.58949 | -5.57096 | 17644 ft | 352 kts | 286° |
| 2026-05-07 18:24 | 43.59718 | -5.60292 | 17162 ft | 351 kts | 286° |
| 2026-05-07 18:24 | 43.60486 | -5.63483 | 16689 ft | 349 kts | 286° |
| 2026-05-07 18:25 | 43.61246 | -5.66646 | 16228 ft | 347 kts | 286° |
| 2026-05-07 18:25 | 43.62001 | -5.69803 | 15761 ft | 345 kts | 286° |
| 2026-05-07 18:25 | 43.62750 | -5.72945 | 15308 ft | 344 kts | 285° |
| 2026-05-07 18:25 | 43.63493 | -5.76066 | 14870 ft | 342 kts | 285° |
| 2026-05-07 18:26 | 43.64226 | -5.79141 | 14433 ft | 341 kts | 285° |
| 2026-05-07 18:26 | 43.64967 | -5.82241 | 14000 ft | 339 kts | 285° |
| 2026-05-07 18:26 | 43.65601 | -5.84902 | 13611 ft | 335 kts | 285° |
| 2026-05-07 18:26 | 43.66329 | -5.87951 | 13131 ft | 333 kts | 285° |
| 2026-05-07 18:27 | 43.67052 | -5.90987 | 12662 ft | 332 kts | 285° |
| 2026-05-07 18:27 | 43.67774 | -5.94018 | 12201 ft | 330 kts | 285° |
| 2026-05-07 18:27 | 43.68486 | -5.97022 | 11733 ft | 328 kts | 285° |
| 2026-05-07 18:27 | 43.69186 | -5.99970 | 11278 ft | 326 kts | 285° |
| 2026-05-07 18:28 | 43.69890 | -6.02944 | 10833 ft | 324 kts | 285° |
| 2026-05-07 18:28 | 43.70585 | -6.05894 | 10390 ft | 322 kts | 285° |
| 2026-05-07 18:28 | 43.71279 | -6.08837 | 9954 ft | 319 kts | 285° |
| 2026-05-07 18:28 | 43.71965 | -6.11751 | 9537 ft | 316 kts | 286° |
| 2026-05-07 18:29 | 43.72632 | -6.14587 | 9399 ft | 304 kts | 286° |
| 2026-05-07 18:29 | 43.73271 | -6.17312 | 9264 ft | 292 kts | 285° |
| 2026-05-07 18:29 | 43.73881 | -6.19919 | 9061 ft | 287 kts | 285° |
| 2026-05-07 18:29 | 43.74494 | -6.22537 | 8675 ft | 285 kts | 286° |
| 2026-05-07 18:30 | 43.75085 | -6.25153 | 8277 ft | 283 kts | 282° |
| 2026-05-07 18:30 | 43.75115 | -6.27830 | 7879 ft | 277 kts | 254° |
| 2026-05-07 18:30 | 43.74275 | -6.30173 | 7481 ft | 272 kts | 227° |
| 2026-05-07 18:30 | 43.72797 | -6.31703 | 7060 ft | 269 kts | 201° |
| 2026-05-07 18:31 | 43.71026 | -6.32533 | 6642 ft | 269 kts | 196° |
| 2026-05-07 18:31 | 43.69239 | -6.33317 | 6219 ft | 269 kts | 196° |
| 2026-05-07 18:31 | 43.67467 | -6.34090 | 5891 ft | 265 kts | 196° |
| 2026-05-07 18:31 | 43.65697 | -6.34753 | 5482 ft | 262 kts | 182° |
| 2026-05-07 18:32 | 43.63987 | -6.34255 | 5087 ft | 248 kts | 146° |
| 2026-05-07 18:32 | 43.62918 | -6.32558 | 4756 ft | 234 kts | 115° |
| 2026-05-07 18:32 | 43.62348 | -6.30493 | 4409 ft | 226 kts | 106° |
| 2026-05-07 18:32 | 43.61934 | -6.28443 | 4097 ft | 218 kts | 104° |
| 2026-05-07 18:33 | 43.61552 | -6.26446 | 3792 ft | 212 kts | 104° |
| 2026-05-07 18:33 | 43.61167 | -6.24489 | 3485 ft | 212 kts | 105° |
| 2026-05-07 18:33 | 43.60766 | -6.22555 | 3170 ft | 211 kts | 106° |
| 2026-05-07 18:33 | 43.60346 | -6.20625 | 2869 ft | 208 kts | 107° |
| 2026-05-07 18:34 | 43.59924 | -6.18750 | 2611 ft | 200 kts | 107° |
| 2026-05-07 18:34 | 43.59513 | -6.16958 | 2318 ft | 192 kts | 108° |
| 2026-05-07 18:34 | 43.59114 | -6.15238 | 2048 ft | 183 kts | 108° |
| 2026-05-07 18:34 | 43.58738 | -6.13626 | 1795 ft | 168 kts | 107° |
| 2026-05-07 18:35 | 43.58399 | -6.12175 | 1580 ft | 153 kts | 107° |
| 2026-05-07 18:35 | 43.58087 | -6.10813 | 1372 ft | 146 kts | 105° |
| 2026-05-07 18:35 | 43.57805 | -6.09482 | 1144 ft | 144 kts | 107° |
| 2026-05-07 18:35 | 43.57489 | -6.08184 | 961 ft | 142 kts | 108° |
| 2026-05-07 18:36 | 43.57188 | -6.06902 | 833 ft | 140 kts | 107° |
| 2026-05-07 18:36 | 43.56879 | -6.05618 | 597 ft | 140 kts | 108° |
| 2026-05-07 18:36 | 43.56581 | -6.04404 | 420 ft | 125 kts | 107° |
| 2026-05-07 18:36 | 43.56385 | -6.03565 | 424 ft | 49 kts | 108° |
| 2026-05-07 18:37 | 43.56314 | -6.03267 | 429 ft | 11 kts | 107° |
| 2026-05-07 18:37 | 43.56285 | -6.03178 | 417 ft | 11 kts | 127° |
| 2026-05-07 18:37 | 43.56219 | -6.03172 | 428 ft | 10 kts | 200° |
| 2026-05-07 18:37 | 43.56158 | -6.03200 | 421 ft | 9 kts | 198° |
| 2026-05-07 18:38 | 43.56108 | -6.03222 | 426 ft | 5 kts | 198° |
| 2026-05-07 18:38 | 43.56086 | -6.03230 | 420 ft | 3 kts | 188° |
| 2026-05-07 18:38 | 43.56065 | -6.03233 | 424 ft | 5 kts | 186° |
| 2026-05-07 18:38 | 43.56031 | -6.03243 | 419 ft | 4 kts | 201° |
| 2026-05-07 18:39 | 43.56018 | -6.03264 | 426 ft | 0 kts | 238° |